Time;durP1;ratioP1;P1;durP2;ratioP2;P2;SDS_P1;SDS_P2;PMS_P1;PMS_P2;Temp;Humidity;BMP_temperature;BMP_pressure;BME280_temperature;BME280_humidity;BME280_pressure;Samples;Min_cycle;Max_cycle;Signal;HPM_P1;HPM_P2
2023/01/20 00:01:13;;;;;;;126.45;35.95;;;;;;;-1.24;100.00;100966.91;5052339;28;20031;-54
2023/01/20 00:03:40;;;;;;;239.45;100.03;;;;;;;-1.28;100.00;100960.72;5052057;28;20044;-55
2023/01/20 00:06:06;;;;;;;226.00;94.33;;;;;;;-1.28;100.00;100960.72;5052601;28;20031;-55
2023/01/20 00:08:32;;;;;;;231.80;94.68;;;;;;;-1.28;100.00;100972.50;5052174;28;20056;-55
2023/01/20 00:10:57;;;;;;;209.60;85.93;;;;;;;-1.28;100.00;100975.03;5052147;28;20036;-55
2023/01/20 00:13:22;;;;;;;223.60;89.95;;;;;;;-1.28;100.00;100982.63;5052422;28;20856;-56
2023/01/20 00:15:48;;;;;;;221.38;89.90;;;;;;;-1.28;100.00;100980.09;5052366;28;20533;-54
2023/01/20 00:18:14;;;;;;;215.75;86.78;;;;;;;-1.28;100.00;100980.09;5052251;28;20547;-54
2023/01/20 00:20:39;;;;;;;211.93;86.68;;;;;;;-1.27;100.00;100984.41;5052114;28;20025;-55
2023/01/20 00:23:05;;;;;;;211.18;85.65;;;;;;;-1.29;100.00;100981.75;5052596;28;20043;-55
2023/01/20 00:25:30;;;;;;;221.38;90.28;;;;;;;-1.26;100.00;100988.69;5051709;28;20035;-55
2023/01/20 00:27:56;;;;;;;251.10;97.32;;;;;;;-1.27;100.00;100991.97;5052269;28;20025;-55
2023/01/20 00:30:21;;;;;;;246.52;101.57;;;;;;;-1.26;100.00;100993.75;5052443;28;20407;-55
2023/01/20 00:32:46;;;;;;;258.52;104.68;;;;;;;-1.26;100.00;100998.81;5051677;28;20400;-54
2023/01/20 00:35:12;;;;;;;277.35;106.75;;;;;;;-1.27;100.00;101004.63;5052308;28;20048;-54
2023/01/20 00:37:38;;;;;;;280.20;105.35;;;;;;;-1.30;100.00;101002.72;5052125;28;20025;-54
2023/01/20 00:40:04;;;;;;;286.77;105.70;;;;;;;-1.31;100.00;101005.16;5051793;28;20078;-55
2023/01/20 00:42:30;;;;;;;298.58;110.05;;;;;;;-1.31;100.00;101006.00;5051775;28;20047;-55
2023/01/20 00:44:55;;;;;;;316.75;114.82;;;;;;;-1.31;100.00;101000.09;5052145;28;20024;-54
2023/01/20 00:47:20;;;;;;;308.75;111.05;;;;;;;-1.32;100.00;101001.72;5051971;28;20025;-54
2023/01/20 00:49:47;;;;;;;305.48;111.63;;;;;;;-1.33;100.00;101002.47;5051935;28;20032;-54
2023/01/20 00:52:12;;;;;;;311.17;113.47;;;;;;;-1.34;100.00;101001.59;5051863;28;20033;-54
2023/01/20 00:54:37;;;;;;;320.48;113.25;;;;;;;-1.34;100.00;101001.59;5054942;28;20079;-55
2023/01/20 00:57:03;;;;;;;312.50;110.32;;;;;;;-1.35;100.00;100997.28;5055759;28;20036;-54
2023/01/20 00:59:28;;;;;;;316.83;114.55;;;;;;;-1.33;100.00;101005.91;5055083;28;20438;-54
2023/01/20 01:01:53;;;;;;;318.30;113.65;;;;;;;-1.34;100.00;101001.59;5055904;28;20033;-54
2023/01/20 01:04:18;;;;;;;319.65;116.00;;;;;;;-1.33;100.00;101000.84;5055791;28;20536;-55
2023/01/20 01:06:44;;;;;;;334.13;114.25;;;;;;;-1.36;100.00;101003.09;5055162;28;20108;-55
2023/01/20 01:09:09;;;;;;;325.77;111.90;;;;;;;-1.36;100.00;101005.63;5055626;28;20109;-54
2023/01/20 01:11:34;;;;;;;325.55;112.35;;;;;;;-1.36;100.00;101002.25;5055280;28;20103;-55
2023/01/20 01:14:00;;;;;;;325.35;111.78;;;;;;;-1.36;100.00;101012.34;5054961;28;20025;-54
2023/01/20 01:16:25;;;;;;;338.48;116.00;;;;;;;-1.37;100.00;101010.56;5055431;28;20376;-55
2023/01/20 01:18:53;;;;;;;338.17;114.20;;;;;;;-1.36;100.00;101025.88;5055269;28;20025;-55
2023/01/20 01:21:19;;;;;;;342.50;115.28;;;;;;;-1.35;100.00;101029.31;5054957;28;20032;-54
2023/01/20 01:23:45;;;;;;;333.88;117.68;;;;;;;-1.35;100.00;101030.16;5054994;28;20025;-55
2023/01/20 01:26:10;;;;;;;344.88;117.40;;;;;;;-1.33;100.00;101026.13;5055356;28;20107;-54
2023/01/20 01:28:36;;;;;;;337.33;114.85;;;;;;;-1.33;100.00;101038.78;5054443;28;20087;-54
2023/01/20 01:31:03;;;;;;;315.08;109.45;;;;;;;-1.34;100.00;101042.06;5054966;28;20029;-55
2023/01/20 01:33:29;;;;;;;338.30;114.55;;;;;;;-1.35;100.00;101035.22;5054895;28;20407;-55
2023/01/20 01:35:59;;;;;;;313.65;108.43;;;;;;;-1.34;100.00;101042.06;5054744;28;20468;-55
2023/01/20 01:38:25;;;;;;;306.00;106.60;;;;;;;-1.33;100.00;101042.94;5054980;28;20025;-55
2023/01/20 01:40:52;;;;;;;311.05;107.97;;;;;;;-1.31;100.00;101045.59;5054843;28;20064;-54
2023/01/20 01:43:29;;;;;;;328.40;108.77;;;;;;;-1.30;100.00;101057.47;5054484;28;20420;-55
2023/01/20 01:45:55;;;;;;;302.17;101.10;;;;;;;-1.31;100.00;101049.00;5055006;28;20024;-55
2023/01/20 01:48:28;;;;;;;301.98;103.60;;;;;;;-1.32;100.00;101059.88;5054611;28;20426;-54
2023/01/20 01:51:26;;;;;;;298.60;102.10;;;;;;;-1.33;100.00;101056.47;5054981;28;20036;-55
2023/01/20 01:53:56;;;;;;;291.40;98.00;;;;;;;-1.31;100.00;101055.72;5053327;28;20091;-54
2023/01/20 01:56:24;;;;;;;287.90;97.32;;;;;;;-1.31;100.00;101061.66;5054398;28;20464;-54
2023/01/20 01:58:54;;;;;;;142.52;28.90;;;;;;;-1.23;100.00;101057.22;5054498;28;20028;-54
2023/01/20 02:01:19;;;;;;;285.77;93.38;;;;;;;-1.29;100.00;101046.59;5054858;28;20036;-55
2023/01/20 02:04:06;;;;;;;293.88;96.03;;;;;;;-1.26;100.00;101047.72;5053856;28;20025;-55
2023/01/20 02:06:34;;;;;;;130.15;30.40;;;;;;;-1.20;100.00;101052.38;5054437;28;20029;-55
2023/01/20 02:09:01;;;;;;;275.20;94.70;;;;;;;-1.25;100.00;101048.59;5054547;28;20395;-55
2023/01/20 02:11:28;;;;;;;295.02;96.68;;;;;;;-1.24;100.00;101057.97;5054024;28;20499;-54
2023/01/20 02:13:54;;;;;;;281.33;91.53;;;;;;;-1.22;100.00;101056.44;5054427;28;20041;-54
2023/01/20 02:16:31;;;;;;;294.63;93.93;;;;;;;-1.22;100.00;101056.44;5054664;28;20029;-54
2023/01/20 02:19:05;;;;;;;292.02;96.18;;;;;;;-1.23;100.00;101047.97;5054750;28;20021;-54
2023/01/20 02:21:45;;;;;;;300.27;98.38;;;;;;;-1.21;100.00;101048.09;5054140;28;20025;-54
2023/01/20 02:24:28;;;;;;;296.88;94.22;;;;;;;-1.22;100.00;101051.41;5053862;28;20061;-55
2023/01/20 02:27:12;;;;;;;297.42;97.22;;;;;;;-1.23;100.00;101042.91;5054136;28;20066;-55
2023/01/20 02:30:00;;;;;;;297.35;97.47;;;;;;;-1.25;100.00;101062.16;5054188;28;20071;-54
2023/01/20 02:32:46;;;;;;;294.50;98.15;;;;;;;-1.25;100.00;101057.09;5053643;28;20453;-55
2023/01/20 02:35:20;;;;;;;280.20;95.85;;;;;;;-1.25;100.00;101051.13;5053822;28;20476;-54
2023/01/20 02:37:54;;;;;;;296.30;98.38;;;;;;;-1.26;100.00;101065.44;5053298;28;20806;-55
2023/01/20 02:41:00;;;;;;;283.90;95.18;;;;;;;-1.25;100.00;101067.19;5054165;28;20035;-54
2023/01/20 02:43:31;;;;;;;279.08;91.32;;;;;;;-1.27;100.00;101067.84;5039000;28;20087;-54
2023/01/20 02:46:21;;;;;;;282.58;95.15;;;;;;;-1.25;100.00;101063.78;5053635;28;20025;-55
2023/01/20 02:48:58;;;;;;;285.85;93.65;;;;;;;-1.28;100.00;101061.00;5053459;28;20379;-55
2023/01/20 02:51:30;;;;;;;261.75;89.50;;;;;;;-1.30;100.00;101063.41;5054140;28;20056;-56
2023/01/20 02:54:01;;;;;;;247.32;86.72;;;;;;;-1.31;100.00;101056.59;5053348;28;20066;-55
2023/01/20 02:56:28;;;;;;;269.02;90.50;;;;;;;-1.30;100.00;101062.53;5053813;28;20043;-55
2023/01/20 02:59:16;;;;;;;251.57;88.85;;;;;;;-1.32;100.00;101059.88;5053371;28;20039;-55
2023/01/20 03:01:49;;;;;;;129.00;31.10;;;;;;;-1.27;100.00;101067.84;5052974;28;20477;-54
2023/01/20 03:04:19;;;;;;;256.92;87.22;;;;;;;-1.35;100.00;101064.69;5053554;28;20031;-54
2023/01/20 03:06:51;;;;;;;256.48;86.47;;;;;;;-1.33;100.00;101058.09;5052972;28;20032;-54
2023/01/20 03:09:23;;;;;;;252.00;84.82;;;;;;;-1.35;100.00;101065.56;5053060;28;20049;-54
2023/01/20 03:11:56;;;;;;;262.83;88.47;;;;;;;-1.37;100.00;101067.09;5053360;28;20033;-54
2023/01/20 03:14:22;;;;;;;260.00;86.85;;;;;;;-1.41;100.00;101062.53;5053017;28;20033;-54
2023/01/20 03:16:49;;;;;;;259.25;88.40;;;;;;;-1.41;100.00;101070.13;5052268;28;20036;-54
2023/01/20 03:19:15;;;;;;;259.13;88.80;;;;;;;-1.41;100.00;101075.19;5053569;28;20108;-54
2023/01/20 03:21:41;;;;;;;268.97;87.33;;;;;;;-1.43;100.00;101086.81;5052509;28;20059;-55
2023/01/20 03:24:06;;;;;;;274.33;88.78;;;;;;;-1.43;100.00;101091.88;5053116;28;20029;-54
2023/01/20 03:26:33;;;;;;;264.13;88.47;;;;;;;-1.44;100.00;101085.06;5052850;28;20029;-55
2023/01/20 03:29:03;;;;;;;272.40;90.70;;;;;;;-1.45;100.00;101084.94;5052684;28;20025;-54
2023/01/20 03:31:33;;;;;;;277.95;91.55;;;;;;;-1.41;100.00;101086.94;5052562;28;20025;-55
2023/01/20 03:34:02;;;;;;;290.20;91.35;;;;;;;-1.42;100.00;101098.72;5052846;28;20033;-55
2023/01/20 03:36:30;;;;;;;294.13;95.35;;;;;;;-1.43;100.00;101094.41;5052962;28;20088;-55
2023/01/20 03:38:57;;;;;;;111.68;26.98;;;;;;;-1.36;100.00;101093.25;5052817;28;20354;-55
2023/01/20 03:41:34;;;;;;;271.33;88.28;;;;;;;-1.44;100.00;101090.09;5052464;28;20469;-54
2023/01/20 03:44:30;;;;;;;274.95;88.43;;;;;;;-1.40;100.00;101092.13;5052615;28;20152;-55
2023/01/20 03:47:28;;;;;;;274.98;90.00;;;;;;;-1.38;100.00;101090.63;5052908;28;20126;-54
2023/01/20 03:50:27;;;;;;;278.95;90.63;;;;;;;-1.39;100.00;101091.38;5052400;28;20053;-54
2023/01/20 03:53:07;;;;;;;283.67;90.65;;;;;;;-1.39;100.00;101096.44;5052054;28;20396;-55
2023/01/20 03:55:42;;;;;;;281.88;87.13;;;;;;;-1.39;100.00;101095.56;5052125;28;20108;-55
2023/01/20 03:58:14;;;;;;;286.70;88.95;;;;;;;-1.44;100.00;101092.63;5052523;28;20499;-54
2023/01/20 04:00:43;;;;;;;144.77;32.90;;;;;;;-1.38;100.00;101105.78;5052531;28;20021;-55
2023/01/20 04:03:30;;;;;;;249.02;86.30;;;;;;;-1.42;100.00;101103.78;5052283;28;20128;-55
2023/01/20 04:06:01;;;;;;;144.48;29.35;;;;;;;-1.37;100.00;101101.59;5052719;28;20025;-55
2023/01/20 04:08:32;;;;;;;276.65;88.80;;;;;;;-1.40;100.00;101101.38;5052599;28;20044;-56
2023/01/20 04:10:59;;;;;;;274.73;89.90;;;;;;;-1.38;100.00;101105.78;5052140;28;20025;-54
2023/01/20 04:13:25;;;;;;;283.52;91.50;;;;;;;-1.34;100.00;101099.34;5052647;28;20036;-55
2023/01/20 04:15:50;;;;;;;280.73;91.30;;;;;;;-1.40;100.00;101107.28;5052591;28;20021;-55
2023/01/20 04:18:18;;;;;;;298.48;93.57;;;;;;;-1.38;100.00;101105.78;5052199;28;20393;-55
2023/01/20 04:20:47;;;;;;;293.40;94.25;;;;;;;-1.39;100.00;101104.00;5052286;28;20158;-55
2023/01/20 04:23:51;;;;;;;295.88;94.32;;;;;;;-1.37;100.00;101106.66;5051958;28;20045;-55
2023/01/20 04:26:16;;;;;;;294.35;94.70;;;;;;;-1.41;100.00;101095.41;5052561;28;20029;-55
2023/01/20 04:28:42;;;;;;;298.33;95.28;;;;;;;-1.40;100.00;101107.28;5053497;28;20028;-55
2023/01/20 04:31:07;;;;;;;300.10;97.97;;;;;;;-1.41;100.00;101100.47;5055951;28;20028;-55
2023/01/20 04:33:36;;;;;;;306.75;97.05;;;;;;;-1.42;100.00;101098.72;5055965;28;20021;-55
2023/01/20 04:36:01;;;;;;;322.90;100.95;;;;;;;-1.38;100.00;101105.78;5056251;28;20029;-55
2023/01/20 04:38:26;;;;;;;305.10;103.63;;;;;;;-1.38;100.00;101104.88;5055807;28;20387;-54
2023/01/20 04:40:51;;;;;;;294.90;99.07;;;;;;;-1.40;100.00;101111.47;5055958;28;20021;-55
2023/01/20 04:43:17;;;;;;;289.42;99.43;;;;;;;-1.41;100.00;101110.56;5056465;28;20107;-55
2023/01/20 04:45:42;;;;;;;293.05;98.05;;;;;;;-1.44;100.00;101109.47;5055452;28;20464;-56
2023/01/20 04:48:08;;;;;;;300.23;99.63;;;;;;;-1.44;100.00;101110.34;5055973;28;20408;-56
2023/01/20 04:50:38;;;;;;;297.83;99.10;;;;;;;-1.42;100.00;101111.34;5055877;28;20060;-55
2023/01/20 04:53:04;;;;;;;288.65;100.43;;;;;;;-1.43;100.00;101114.63;5055494;28;20526;-54
2023/01/20 04:55:31;;;;;;;302.63;98.20;;;;;;;-1.46;100.00;101119.41;5055685;28;20029;-55
2023/01/20 04:57:56;;;;;;;284.55;96.00;;;;;;;-1.46;100.00;101121.94;5056153;28;20021;-55
2023/01/20 05:00:22;;;;;;;273.38;94.90;;;;;;;-1.48;100.00;101113.38;5055412;28;20028;-55
2023/01/20 05:02:47;;;;;;;266.35;93.05;;;;;;;-1.51;100.00;101120.69;5055357;28;20031;-54
2023/01/20 05:05:12;;;;;;;264.02;90.00;;;;;;;-1.53;100.00;101119.69;5055823;28;20477;-55
2023/01/20 05:07:38;;;;;;;271.90;94.82;;;;;;;-1.53;100.00;101118.03;5055219;28;20032;-54
2023/01/20 05:10:04;;;;;;;264.23;91.32;;;;;;;-1.51;100.00;101124.13;5055320;28;20055;-55
2023/01/20 05:12:29;;;;;;;241.88;88.40;;;;;;;-1.53;100.00;101115.50;5054876;28;20057;-54
2023/01/20 05:14:54;;;;;;;263.15;91.65;;;;;;;-1.54;100.00;101128.03;5055681;28;20534;-56
2023/01/20 05:17:19;;;;;;;252.70;89.72;;;;;;;-1.53;100.00;101124.75;5055835;28;20104;-55
2023/01/20 05:19:45;;;;;;;263.27;94.88;;;;;;;-1.55;100.00;101121.19;5054779;28;20411;-54
2023/01/20 05:22:10;;;;;;;263.70;93.07;;;;;;;-1.56;100.00;101129.53;5055151;28;20112;-55
2023/01/20 05:24:35;;;;;;;113.10;26.88;;;;;;;-1.50;100.00;101135.09;5055203;28;20400;-54
2023/01/20 05:27:00;;;;;;;263.75;91.47;;;;;;;-1.53;100.00;101144.97;5055135;28;20041;-56
2023/01/20 05:29:27;;;;;;;263.52;94.38;;;;;;;-1.53;100.00;101150.03;5055158;28;20024;-55
2023/01/20 05:31:53;;;;;;;266.20;93.60;;;;;;;-1.53;100.00;101145.84;5055517;28;20095;-55
2023/01/20 05:34:18;;;;;;;279.08;93.90;;;;;;;-1.52;100.00;101132.44;5054877;28;20057;-55
2023/01/20 05:36:43;;;;;;;264.52;93.95;;;;;;;-1.54;100.00;101133.97;5054952;28;20380;-55
2023/01/20 05:39:09;;;;;;;265.65;95.15;;;;;;;-1.52;100.00;101136.63;5054765;28;20021;-55
2023/01/20 05:41:34;;;;;;;263.70;93.22;;;;;;;-1.52;100.00;101137.50;5054466;28;20021;-56
2023/01/20 05:43:59;;;;;;;266.13;94.15;;;;;;;-1.53;100.00;101140.78;5054731;28;20461;-54
2023/01/20 05:46:24;;;;;;;263.92;91.90;;;;;;;-1.48;100.00;101148.75;5055147;28;20021;-55
2023/01/20 05:48:50;;;;;;;134.18;30.92;;;;;;;-1.43;100.00;101155.09;5054301;28;20082;-55
2023/01/20 05:51:15;;;;;;;141.00;31.77;;;;;;;-1.42;100.00;101139.16;5054647;28;20397;-54
2023/01/20 05:53:40;;;;;;;268.73;93.60;;;;;;;-1.47;100.00;101140.44;5054665;28;20033;-55
2023/01/20 05:56:06;;;;;;;146.15;33.70;;;;;;;-1.44;100.00;101145.72;5054663;28;20104;-56
2023/01/20 05:58:32;;;;;;;259.55;91.05;;;;;;;-1.51;100.00;101143.44;5054625;28;20031;-55
2023/01/20 06:01:09;;;;;;;264.20;94.65;;;;;;;-1.51;100.00;101143.44;5054882;28;20029;-54
2023/01/20 06:03:35;;;;;;;262.90;90.68;;;;;;;-1.49;100.00;101145.34;5053860;28;20036;-55
2023/01/20 06:06:02;;;;;;;275.63;97.75;;;;;;;-1.48;100.00;101148.75;5054709;28;20100;-55
2023/01/20 06:08:27;;;;;;;259.10;90.20;;;;;;;-1.46;100.00;101147.22;5054568;28;20048;-55
2023/01/20 06:10:53;;;;;;;267.75;91.80;;;;;;;-1.46;100.00;101154.81;5054067;28;20028;-54
2023/01/20 06:13:18;;;;;;;261.73;89.50;;;;;;;-1.43;100.00;101155.09;5054642;28;20532;-55
2023/01/20 06:15:43;;;;;;;258.30;87.45;;;;;;;-1.43;100.00;101160.13;5053806;28;20104;-55
2023/01/20 06:18:11;;;;;;;237.02;82.75;;;;;;;-1.41;100.00;101157.72;5054229;28;20461;-55
2023/01/20 06:20:37;;;;;;;262.42;89.05;;;;;;;-1.39;100.00;101154.56;5054397;28;20086;-55
2023/01/20 06:23:03;;;;;;;240.10;82.72;;;;;;;-1.39;100.00;101153.69;5053928;28;20036;-54
2023/01/20 06:25:28;;;;;;;243.60;86.80;;;;;;;-1.39;100.00;101159.63;5053995;28;20021;-54
2023/01/20 06:27:53;;;;;;;240.38;84.45;;;;;;;-1.38;100.00;101158.88;5054293;28;20025;-55
2023/01/20 06:30:18;;;;;;;238.38;87.18;;;;;;;-1.36;100.00;101166.59;5053777;28;20033;-55
2023/01/20 06:32:47;;;;;;;239.80;84.22;;;;;;;-1.37;100.00;101163.19;5053641;28;20019;-55
2023/01/20 06:35:12;;;;;;;236.18;83.63;;;;;;;-1.35;100.00;101160.78;5054317;28;20029;-55
2023/01/20 06:37:38;;;;;;;132.77;28.95;;;;;;;-1.29;100.00;101155.31;5053516;28;20029;-55
2023/01/20 06:40:03;;;;;;;238.73;82.88;;;;;;;-1.33;100.00;101159.25;5053912;28;20029;-54
2023/01/20 06:42:30;;;;;;;289.33;109.07;;;;;;;-1.32;100.00;101155.97;5053804;28;20037;-55
2023/01/20 06:44:55;;;;;;;263.60;96.18;;;;;;;-1.33;100.00;101152.56;5053367;28;20489;-55
2023/01/20 06:47:20;;;;;;;235.98;84.68;;;;;;;-1.30;100.00;101151.03;5053647;28;20033;-54
2023/01/20 06:49:46;;;;;;;242.20;83.90;;;;;;;-1.31;100.00;101151.81;5053560;28;20020;-55
2023/01/20 06:52:11;;;;;;;234.07;80.47;;;;;;;-1.31;100.00;101154.34;5052620;28;20041;-55
2023/01/20 06:54:36;;;;;;;234.77;83.93;;;;;;;-1.30;100.00;101159.50;5053500;28;20050;-55
2023/01/20 06:57:02;;;;;;;237.45;83.20;;;;;;;-1.31;100.00;101159.38;5053999;28;20044;-54
2023/01/20 06:59:27;;;;;;;237.40;83.00;;;;;;;-1.29;100.00;101160.38;5053118;28;20021;-55
2023/01/20 07:01:52;;;;;;;236.17;83.53;;;;;;;-1.30;100.00;101156.97;5053269;28;20032;-54
2023/01/20 07:04:17;;;;;;;235.82;85.00;;;;;;;-1.30;100.00;101158.59;5053759;28;20032;-54
2023/01/20 07:06:43;;;;;;;238.18;82.50;;;;;;;-1.30;100.00;101156.06;5052649;28;20098;-55
2023/01/20 07:09:10;;;;;;;239.82;86.45;;;;;;;-1.31;100.00;101162.78;5053363;28;20040;-55
2023/01/20 07:11:36;;;;;;;232.15;82.40;;;;;;;-1.30;100.00;101163.66;5053256;28;20060;-55
2023/01/20 07:14:02;;;;;;;241.32;85.00;;;;;;;-1.30;100.00;101162.03;5052913;28;20063;-54
2023/01/20 07:16:27;;;;;;;228.35;81.63;;;;;;;-1.32;100.00;101166.06;5053092;28;20021;-55
2023/01/20 07:18:53;;;;;;;234.35;83.25;;;;;;;-1.35;100.00;101173.41;5052998;28;20083;-55
2023/01/20 07:21:19;;;;;;;232.73;81.40;;;;;;;-1.31;100.00;101166.97;5053046;28;20473;-55
2023/01/20 07:23:45;;;;;;;216.55;78.80;;;;;;;-1.31;100.00;101172.03;5053019;28;20021;-55
2023/01/20 07:26:14;;;;;;;223.40;82.20;;;;;;;-1.30;100.00;101176.31;5052763;28;20025;-55
2023/01/20 07:28:39;;;;;;;225.07;83.57;;;;;;;-1.29;100.00;101180.63;5052597;28;20067;-55
2023/01/20 07:31:10;;;;;;;230.48;81.40;;;;;;;-1.27;100.00;101190.09;5053015;28;20419;-55
2023/01/20 07:33:36;;;;;;;214.60;79.57;;;;;;;-1.26;100.00;101194.41;5052481;28;20049;-55
2023/01/20 07:36:02;;;;;;;218.05;79.78;;;;;;;-1.25;100.00;101192.75;5053016;28;20055;-55
2023/01/20 07:38:28;;;;;;;220.10;80.00;;;;;;;-1.23;100.00;101196.28;5052690;28;20033;-55
2023/01/20 07:41:01;;;;;;;213.77;79.72;;;;;;;-1.23;100.00;101198.81;5052469;28;20025;-55
2023/01/20 07:43:27;;;;;;;218.45;79.97;;;;;;;-1.20;100.00;101199.06;5052410;28;20402;-54
2023/01/20 07:46:01;;;;;;;220.77;82.88;;;;;;;-1.20;100.00;101201.59;5052939;28;20116;-54
2023/01/20 07:48:28;;;;;;;205.50;78.50;;;;;;;-1.19;100.00;101200.84;5052520;28;20021;-55
2023/01/20 07:51:00;;;;;;;208.02;80.40;;;;;;;-1.18;100.00;101210.22;5052802;28;20087;-55
2023/01/20 07:53:26;;;;;;;215.25;80.50;;;;;;;-1.17;100.00;101209.47;5052903;28;20037;-55
2023/01/20 07:55:52;;;;;;;204.05;76.75;;;;;;;-1.18;100.00;101203.50;5051927;28;20032;-54
2023/01/20 07:58:17;;;;;;;209.52;78.65;;;;;;;-1.17;100.00;101206.94;5052361;28;20113;-54
2023/01/20 08:00:42;;;;;;;209.05;78.35;;;;;;;-1.16;100.00;101208.72;5052655;28;20032;-54
2023/01/20 08:03:07;;;;;;;209.90;78.55;;;;;;;-1.13;100.00;101213.13;5051964;28;20112;-55
2023/01/20 08:05:33;;;;;;;114.00;26.48;;;;;;;-1.08;100.00;101221.97;5052070;28;20025;-54
2023/01/20 08:07:58;;;;;;;220.60;79.47;;;;;;;-1.14;100.00;101217.28;5052570;28;20021;-54
2023/01/20 08:10:23;;;;;;;206.25;77.45;;;;;;;-1.18;100.00;101207.69;5051948;28;20029;-55
2023/01/20 08:12:49;;;;;;;210.43;75.80;;;;;;;-1.21;100.00;101210.84;5052276;28;20033;-55
2023/01/20 08:15:14;;;;;;;212.10;78.35;;;;;;;-1.19;100.00;101208.44;5052236;28;20025;-55
2023/01/20 08:17:39;;;;;;;206.65;77.75;;;;;;;-1.20;100.00;101207.56;5051976;28;20411;-55
2023/01/20 08:20:05;;;;;;;217.55;78.22;;;;;;;-1.22;100.00;101204.00;5052642;28;20028;-54
2023/01/20 08:22:33;;;;;;;215.32;80.10;;;;;;;-1.23;100.00;101214.88;5051758;28;20430;-54
2023/01/20 08:24:58;;;;;;;92.03;21.23;;;;;;;-1.20;100.00;101214.25;5052283;28;20487;-54
2023/01/20 08:27:23;;;;;;;214.32;77.40;;;;;;;-1.25;100.00;101215.50;5052346;28;20026;-55
2023/01/20 08:29:48;;;;;;;225.88;78.85;;;;;;;-1.25;100.00;101206.28;5051759;28;20155;-54
2023/01/20 08:32:14;;;;;;;236.98;82.78;;;;;;;-1.27;100.00;101211.97;5052384;28;20400;-54
2023/01/20 08:34:39;;;;;;;241.57;91.82;;;;;;;-1.27;100.00;101215.38;5052330;28;20061;-55
2023/01/20 08:37:04;;;;;;;242.13;89.57;;;;;;;-1.28;100.00;101217.78;5051793;28;20031;-54
2023/01/20 08:39:30;;;;;;;289.63;126.35;;;;;;;-1.28;100.00;101217.78;5051948;28;20033;-52
2023/01/20 08:41:55;;;;;;;277.38;108.55;;;;;;;-1.27;100.00;101229.69;5052219;28;20100;-54
2023/01/20 08:44:20;;;;;;;271.00;108.82;;;;;;;-1.27;100.00;101230.56;5052007;28;20040;-54
2023/01/20 08:46:46;;;;;;;252.82;92.90;;;;;;;-1.29;100.00;101232.09;5051929;28;20021;-54
2023/01/20 08:49:15;;;;;;;262.50;105.22;;;;;;;-1.29;100.00;101236.25;5052416;28;20108;-54
2023/01/20 08:51:42;;;;;;;250.55;93.65;;;;;;;-1.30;100.00;101235.38;5051507;28;20028;-54
2023/01/20 08:54:07;;;;;;;242.23;85.27;;;;;;;-1.31;100.00;101238.66;5052041;28;20021;-55
2023/01/20 08:56:34;;;;;;;232.45;83.05;;;;;;;-1.31;100.00;101232.72;5051840;28;20750;-56
2023/01/20 08:59:01;;;;;;;206.10;76.10;;;;;;;-1.28;100.00;101243.06;5051664;28;20538;-55
2023/01/20 09:01:29;;;;;;;212.43;76.85;;;;;;;-1.28;100.00;101243.06;5052149;28;20017;-55
2023/01/20 09:03:55;;;;;;;214.35;76.70;;;;;;;-1.29;100.00;101243.84;5052196;28;20025;-55
2023/01/20 09:06:21;;;;;;;202.05;75.13;;;;;;;-1.27;100.00;101245.72;5051476;28;20025;-55
2023/01/20 09:08:50;;;;;;;202.35;73.00;;;;;;;-1.27;100.00;101239.81;5051586;28;20507;-55
2023/01/20 09:11:25;;;;;;;193.60;71.95;;;;;;;-1.27;100.00;101247.38;5052152;28;20124;-56
2023/01/20 09:13:51;;;;;;;95.72;21.95;;;;;;;-1.23;100.00;101242.69;5051625;28;20029;-55
2023/01/20 09:16:18;;;;;;;192.68;70.20;;;;;;;-1.30;100.00;101244.59;5055670;28;20096;-55
2023/01/20 09:18:43;;;;;;;203.65;75.25;;;;;;;-1.31;100.00;101238.66;5055061;28;20036;-55
2023/01/20 09:21:09;;;;;;;204.27;70.38;;;;;;;-1.31;100.00;101247.91;5055349;28;20016;-55
2023/01/20 09:23:36;;;;;;;207.55;74.45;;;;;;;-1.31;100.00;101252.94;5055074;28;20033;-55
2023/01/20 09:26:03;;;;;;;218.38;74.70;;;;;;;-1.34;100.00;101244.34;5054961;28;20454;-55
2023/01/20 09:28:29;;;;;;;227.73;77.03;;;;;;;-1.34;100.00;101253.59;5055103;28;20025;-56
2023/01/20 09:30:58;;;;;;;226.75;75.80;;;;;;;-1.36;100.00;101245.84;5055583;28;20101;-55
2023/01/20 09:33:23;;;;;;;223.07;74.95;;;;;;;-1.37;100.00;101249.16;5054913;28;20083;-54
2023/01/20 09:35:56;;;;;;;219.60;75.30;;;;;;;-1.34;100.00;101251.91;5054793;28;20477;-54
2023/01/20 09:44:45;;;;;;;98.72;26.13;;;;;;;-1.26;100.00;101249.16;5055208;28;20071;-57
2023/01/20 09:47:31;;;;;;;228.40;85.95;;;;;;;-1.29;100.00;101251.41;5054429;28;20112;-57
2023/01/20 09:53:39;;;;;;;205.32;76.93;;;;;;;-1.25;100.00;101248.38;5055044;28;20056;-57
2023/01/20 09:56:18;;;;;;;198.70;74.10;;;;;;;-1.26;100.00;101249.16;5054824;28;20017;-58
2023/01/20 09:59:22;;;;;;;102.22;24.00;;;;;;;-1.23;100.00;101246.88;5054802;28;20051;-58
2023/01/20 10:01:53;;;;;;;201.60;74.57;;;;;;;-1.26;100.00;101241.56;5053789;28;20033;-58
2023/01/20 10:04:51;;;;;;;192.02;73.45;;;;;;;-1.25;100.00;101250.91;5054616;28;20032;-57
2023/01/20 10:07:28;;;;;;;192.88;72.03;;;;;;;-1.29;100.00;101246.34;5050767;28;20040;-57
2023/01/20 10:10:15;;;;;;;190.13;72.57;;;;;;;-1.31;100.00;101248.75;5053735;28;20060;-57
2023/01/20 10:12:53;;;;;;;199.75;74.10;;;;;;;-1.31;100.00;101241.19;5054482;28;20029;-57
2023/01/20 10:15:26;;;;;;;198.18;73.10;;;;;;;-1.31;100.00;101240.31;5054231;28;20025;-57
2023/01/20 10:18:11;;;;;;;198.82;74.40;;;;;;;-1.29;100.00;101246.34;5053996;28;20083;-57
2023/01/20 10:20:50;;;;;;;189.23;70.47;;;;;;;-1.30;100.00;101245.50;5054184;28;20063;-57
2023/01/20 10:23:28;;;;;;;201.05;74.32;;;;;;;-1.30;100.00;101244.59;5053922;28;20039;-60
2023/01/20 10:26:15;;;;;;;195.07;74.57;;;;;;;-1.29;100.00;101251.41;5053959;28;20095;-60
2023/01/20 10:28:48;;;;;;;;;;;;;;;-1.25;100.00;101249.28;5054697;28;20054;-59
2023/01/20 10:31:20;;;;;;;175.45;65.35;;;;;;;-1.31;100.00;101247.91;5054057;28;19913;-59
2023/01/20 10:33:45;;;;;;;178.43;65.25;;;;;;;-1.33;100.00;101251.16;5054008;28;20025;-59
2023/01/20 10:36:20;;;;;;;175.75;63.30;;;;;;;-1.33;100.00;101242.69;5053659;28;20024;-59
2023/01/20 10:38:58;;;;;;;168.32;62.58;;;;;;;-1.34;100.00;101244.34;5053517;28;20036;-59
2023/01/20 10:41:44;;;;;;;170.73;66.95;;;;;;;-1.33;100.00;101251.16;5054338;28;20036;-60
2023/01/20 10:44:13;;;;;;;165.50;64.85;;;;;;;-1.37;100.00;101244.09;5053465;28;20028;-59
2023/01/20 10:47:04;;;;;;;173.45;67.03;;;;;;;-1.34;100.00;101249.41;5053521;28;20111;-59
2023/01/20 10:49:44;;;;;;;167.43;63.42;;;;;;;-1.35;100.00;101247.63;5053174;28;20512;-59
2023/01/20 10:52:28;;;;;;;155.75;63.17;;;;;;;-1.34;100.00;101251.91;5053297;28;20049;-59
2023/01/20 10:55:11;;;;;;;149.65;62.00;;;;;;;-1.34;100.00;101254.44;5053836;28;20021;-59
2023/01/20 10:57:37;;;;;;;155.77;61.03;;;;;;;-1.34;100.00;101246.88;5052945;28;20492;-59
2023/01/20 11:00:06;;;;;;;160.02;62.30;;;;;;;-1.34;100.00;101249.41;5053567;28;20032;-59
2023/01/20 11:02:36;;;;;;;154.10;61.00;;;;;;;-1.34;100.00;101254.44;5053114;28;20047;-60
2023/01/20 11:05:21;;;;;;;154.77;61.53;;;;;;;-1.30;100.00;101254.69;5053121;28;20173;-59
2023/01/20 11:07:49;;;;;;;152.80;59.92;;;;;;;-1.34;100.00;101259.50;5052945;28;20028;-60
2023/01/20 11:10:21;;;;;;;146.57;59.20;;;;;;;-1.29;100.00;101262.44;5053207;28;20517;-60
2023/01/20 11:12:50;;;;;;;163.40;63.17;;;;;;;-1.28;100.00;101265.84;5052565;28;20148;-60